createdAt,value
2022-12-14T00:00:53.872Z,-2.41
2022-12-14T00:05:55.518Z,-2.42
2022-12-14T00:10:58.343Z,-2.38
2022-12-14T00:16:04.737Z,-2.41
2022-12-14T00:21:07.969Z,-2.38
2022-12-14T00:26:19.590Z,-2.45
2022-12-14T00:31:22.371Z,-2.46
2022-12-14T00:36:24.032Z,-2.38
2022-12-14T00:41:25.662Z,-2.35
2022-12-14T00:46:27.307Z,-2.34
2022-12-14T00:51:29.156Z,-2.31
2022-12-14T00:56:31.004Z,-2.27
2022-12-14T01:01:32.801Z,-2.33
2022-12-14T01:06:34.603Z,-2.36
2022-12-14T01:11:36.328Z,-2.32
2022-12-14T01:16:38.047Z,-2.28
2022-12-14T01:21:40.250Z,-2.29
2022-12-14T01:26:41.867Z,-2.28
2022-12-14T01:31:46.772Z,-2.29
2022-12-14T01:36:50.417Z,-2.30
2022-12-14T01:41:52.926Z,-2.28
2022-12-14T01:47:07.439Z,-2.31
2022-12-14T01:52:20.364Z,-2.29
2022-12-14T01:57:25.223Z,-2.22
2022-12-14T02:02:28.435Z,-2.27
2022-12-14T02:07:30.844Z,-2.29
2022-12-14T02:12:40.199Z,-2.25
2022-12-14T02:17:46.009Z,-2.25
2022-12-14T02:23:03.724Z,-2.24
2022-12-14T02:28:14.424Z,-2.19
2022-12-14T02:33:15.918Z,-2.08
2022-12-14T02:38:20.558Z,-2.06
2022-12-14T02:43:28.948Z,-2.10
2022-12-14T02:48:39.555Z,-2.15
2022-12-14T02:53:54.917Z,-2.15
2022-12-14T02:58:57.648Z,-2.18
2022-12-14T03:04:00.207Z,-2.17
2022-12-14T03:09:04.562Z,-2.15
2022-12-14T03:14:10.019Z,-2.13
2022-12-14T03:19:17.172Z,-2.16
2022-12-14T03:24:21.825Z,-2.16
2022-12-14T03:29:27.359Z,-2.18
2022-12-14T03:34:34.873Z,-2.13
2022-12-14T03:39:38.336Z,-2.11
2022-12-14T03:44:49.506Z,-2.05
2022-12-14T03:50:00.085Z,-2.08
2022-12-14T03:55:09.733Z,-2.10
2022-12-14T04:00:13.902Z,-2.05
2022-12-14T04:05:18.349Z,-1.94
2022-12-14T04:10:42.786Z,-1.94
2022-12-14T04:16:04.325Z,-1.93
2022-12-14T04:21:12.990Z,-1.87
2022-12-14T04:26:17.541Z,-1.80
2022-12-14T04:31:21.068Z,-1.76
2022-12-14T04:36:30.005Z,-1.79
2022-12-14T04:41:34.980Z,-1.80
2022-12-14T04:46:40.718Z,-1.77
2022-12-14T04:51:49.753Z,-1.79
2022-12-14T04:56:55.900Z,-1.78
2022-12-14T05:02:00.591Z,-1.81
2022-12-14T05:07:11.681Z,-1.70
2022-12-14T05:12:20.041Z,-1.75
2022-12-14T05:17:21.804Z,-1.77
2022-12-14T05:22:23.465Z,-1.77
2022-12-14T05:27:25.119Z,-1.77
2022-12-14T05:32:28.586Z,-1.74
2022-12-14T05:37:30.311Z,-1.70
2022-12-14T05:42:32.052Z,-1.71
2022-12-14T05:47:33.659Z,-1.74
2022-12-14T05:52:35.434Z,-1.78
2022-12-14T05:57:37.337Z,-1.73
2022-12-14T06:02:39.255Z,-1.64
2022-12-14T06:07:41.086Z,-1.66
2022-12-14T06:12:43.585Z,-1.63
2022-12-14T06:17:45.764Z,-1.62
2022-12-14T06:22:47.889Z,-1.55
2022-12-14T06:27:53.592Z,-0.87
2022-12-14T06:32:55.235Z,-1.04
2022-12-14T06:37:56.907Z,-1.30
2022-12-14T06:42:58.504Z,-1.26
2022-12-14T06:48:00.107Z,-1.34
2022-12-14T06:53:01.927Z,-1.38
2022-12-14T06:58:03.563Z,-1.38
2022-12-14T07:03:05.367Z,-1.33
2022-12-14T07:08:07.226Z,-1.36
2022-12-14T07:13:09.013Z,-1.38
2022-12-14T07:18:10.728Z,-1.32
2022-12-14T07:23:12.310Z,-1.29
2022-12-14T07:28:14.377Z,-1.29
2022-12-14T07:33:15.925Z,-1.26
2022-12-14T07:38:18.031Z,-1.23
2022-12-14T07:43:19.720Z,-1.27
2022-12-14T07:48:21.412Z,-1.25
2022-12-14T07:53:23.023Z,-1.26
2022-12-14T07:58:24.647Z,-1.22
2022-12-14T08:03:27.373Z,-1.19
2022-12-14T08:08:29.295Z,-1.18
2022-12-14T08:13:31.698Z,-1.17
2022-12-14T08:18:33.971Z,-1.14
2022-12-14T08:23:36.232Z,-1.12
2022-12-14T08:28:37.882Z,-1.12
2022-12-14T08:33:40.226Z,-1.07
2022-12-14T08:38:41.889Z,-1.03
2022-12-14T08:43:43.580Z,-1.04
2022-12-14T08:48:45.178Z,-1.02
2022-12-14T08:53:49.685Z,-1.05
2022-12-14T08:58:51.685Z,-0.96
2022-12-14T09:03:53.534Z,-0.81
2022-12-14T09:08:55.610Z,-0.81
2022-12-14T09:13:57.292Z,-0.79
2022-12-14T09:18:58.871Z,-0.80
2022-12-14T09:24:01.278Z,-0.75
2022-12-14T09:29:02.860Z,-0.76
2022-12-14T09:34:04.450Z,-0.81
2022-12-14T09:39:06.357Z,-0.82
2022-12-14T09:44:18.189Z,-0.71
2022-12-14T09:49:52.765Z,-0.62
2022-12-14T09:54:56.000Z,-0.63
2022-12-14T09:59:57.604Z,-0.62
2022-12-14T10:05:06.353Z,-0.61
2022-12-14T10:10:19.370Z,-0.58
2022-12-14T10:15:26.713Z,-0.50
2022-12-14T10:20:43.112Z,-0.44
2022-12-14T10:25:46.653Z,-0.41
2022-12-14T10:30:52.745Z,-0.38
2022-12-14T10:35:55.337Z,-0.40
2022-12-14T10:41:05.887Z,-0.40
2022-12-14T10:46:15.206Z,-0.33
2022-12-14T10:51:20.768Z,-0.35
2022-12-14T10:56:33.682Z,-0.37
2022-12-14T11:01:35.541Z,-0.32
2022-12-14T11:06:37.242Z,-0.29
2022-12-14T11:11:38.877Z,-0.30
2022-12-14T11:16:41.686Z,-0.30
2022-12-14T11:21:44.228Z,-0.29
2022-12-14T11:26:46.146Z,-0.24
2022-12-14T11:31:48.963Z,-0.13
2022-12-14T11:36:50.784Z,-0.10
2022-12-14T11:41:52.384Z,-0.11
2022-12-14T11:47:00.283Z,-0.14
2022-12-14T11:52:05.215Z,-0.16
2022-12-14T11:57:12.595Z,-0.14
2022-12-14T12:02:14.267Z,-0.12
2022-12-14T12:07:24.191Z,-0.10
2022-12-14T12:12:25.995Z,-0.07
2022-12-14T12:17:37.326Z,-0.10
2022-12-14T12:22:43.159Z,-0.12
2022-12-14T12:27:48.130Z,-0.07
2022-12-14T12:32:51.277Z,-0.07
2022-12-14T12:37:56.083Z,-0.05
2022-12-14T12:43:08.801Z,0.00
2022-12-14T12:48:19.470Z,-0.03
2022-12-14T12:53:23.277Z,0.01
2022-12-14T12:58:27.532Z,0.09
2022-12-14T13:03:32.340Z,0.13
2022-12-14T13:08:39.164Z,0.12
2022-12-14T13:13:44.122Z,0.14
2022-12-14T13:19:12.865Z,0.21
2022-12-14T13:24:17.612Z,0.27
2022-12-14T13:29:37.785Z,0.26
2022-12-14T13:34:57.949Z,0.27
2022-12-14T13:40:17.234Z,0.30
2022-12-14T13:45:30.032Z,0.25
2022-12-14T13:50:39.775Z,0.28
2022-12-14T13:55:52.010Z,0.25
2022-12-14T14:00:55.486Z,0.13
2022-12-14T14:06:00.375Z,0.10
2022-12-14T14:11:39.210Z,0.18
2022-12-14T14:16:44.399Z,0.31
2022-12-14T14:27:37.616Z,0.29
2022-12-14T14:32:42.766Z,0.36
2022-12-14T14:37:53.406Z,0.42
2022-12-14T14:43:05.170Z,0.46
2022-12-14T14:48:23.066Z,0.38
2022-12-14T14:53:29.188Z,0.32
2022-12-14T14:58:32.775Z,0.22
2022-12-14T15:03:34.875Z,0.05
2022-12-14T15:08:40.392Z,-0.04
2022-12-14T15:14:00.589Z,-0.06
2022-12-14T15:19:15.480Z,-0.04
2022-12-14T15:24:17.252Z,-0.08
2022-12-14T15:29:23.599Z,-0.06
2022-12-14T15:34:25.419Z,0.00
2022-12-14T15:39:39.804Z,-0.01
2022-12-14T15:44:57.073Z,0.02
2022-12-14T15:50:17.425Z,0.07
2022-12-14T15:55:32.978Z,0.09
2022-12-14T16:00:35.782Z,0.16
2022-12-14T16:05:37.542Z,0.04
2022-12-14T16:10:39.414Z,0.03
2022-12-14T16:15:41.630Z,-0.05
2022-12-14T16:20:44.886Z,-0.14
2022-12-14T16:25:51.470Z,-0.15
2022-12-14T16:31:13.390Z,-0.11
2022-12-14T16:36:18.088Z,-0.18
2022-12-14T16:41:19.677Z,-0.26
2022-12-14T16:46:21.448Z,-0.24
2022-12-14T16:51:44.412Z,-0.28
2022-12-14T16:56:46.655Z,-0.42
2022-12-14T17:01:49.959Z,-0.32
2022-12-14T17:06:53.211Z,-0.22
2022-12-14T17:11:57.203Z,-0.16
2022-12-14T17:17:00.860Z,-0.13
2022-12-14T17:22:09.457Z,-0.09
2022-12-14T17:27:17.951Z,0.00
2022-12-14T17:32:19.673Z,0.11
2022-12-14T17:37:22.873Z,0.14
2022-12-14T17:42:24.522Z,0.04
2022-12-14T17:47:26.644Z,0.03
2022-12-14T17:52:29.377Z,0.02
2022-12-14T17:57:31.007Z,-0.04
2022-12-14T18:02:33.511Z,-0.02
2022-12-14T18:07:35.341Z,-0.04
2022-12-14T18:12:37.090Z,0.01
2022-12-14T18:17:38.666Z,0.05
2022-12-14T18:22:40.349Z,0.08
2022-12-14T18:27:41.936Z,0.05
2022-12-14T18:32:43.664Z,0.15
2022-12-14T18:37:49.280Z,0.24
2022-12-14T18:42:51.350Z,0.29
2022-12-14T18:47:54.125Z,0.33
2022-12-14T18:52:55.811Z,0.37
2022-12-14T18:58:00.622Z,0.42
2022-12-14T19:03:05.556Z,0.48
2022-12-14T19:08:09.400Z,0.48
2022-12-14T19:13:20.345Z,0.48
2022-12-14T19:18:26.534Z,0.50
2022-12-14T19:23:28.637Z,0.36
2022-12-14T19:28:32.852Z,0.31
2022-12-14T19:33:35.213Z,0.36
2022-12-14T19:38:37.554Z,0.38
2022-12-14T19:43:39.261Z,0.39
2022-12-14T19:48:42.151Z,0.35
2022-12-14T19:53:44.715Z,0.35
2022-12-14T19:58:47.624Z,0.33
2022-12-14T20:03:49.478Z,0.38
2022-12-14T20:08:51.140Z,0.53
2022-12-14T20:13:59.031Z,0.58
2022-12-14T20:19:04.693Z,0.65
2022-12-14T20:24:06.540Z,0.70
2022-12-14T20:29:08.275Z,0.73
2022-12-14T20:34:09.855Z,0.80
2022-12-14T20:39:12.019Z,0.76
2022-12-14T20:44:15.873Z,0.66
2022-12-14T20:49:18.843Z,0.68
2022-12-14T20:54:22.163Z,0.70
2022-12-14T20:59:23.991Z,0.71
2022-12-14T21:04:25.753Z,0.67
2022-12-14T21:09:27.384Z,0.63
2022-12-14T21:14:30.334Z,0.55
2022-12-14T21:19:32.518Z,0.57
2022-12-14T21:29:59.968Z,0.54
2022-12-14T21:35:01.563Z,0.60
2022-12-14T21:40:03.824Z,0.67
2022-12-14T21:45:05.662Z,0.62
2022-12-14T21:50:07.674Z,0.66
2022-12-14T21:55:09.526Z,0.58
2022-12-14T22:00:11.410Z,0.53
2022-12-14T22:05:16.051Z,0.54
2022-12-14T22:10:24.391Z,0.59
2022-12-14T22:15:26.679Z,0.58
2022-12-14T22:20:28.456Z,0.59
2022-12-14T22:25:30.039Z,0.53
2022-12-14T22:30:32.198Z,0.40
2022-12-14T22:35:33.953Z,0.34
2022-12-14T22:40:35.625Z,0.32
2022-12-14T22:45:37.355Z,0.36
2022-12-14T22:50:39.036Z,0.51
2022-12-14T22:55:41.802Z,0.41
2022-12-14T23:00:43.522Z,0.25
2022-12-14T23:05:45.847Z,0.08
2022-12-14T23:11:06.228Z,-0.01
2022-12-14T23:16:26.592Z,-0.06
2022-12-14T23:21:46.887Z,-0.07
2022-12-14T23:27:09.902Z,-0.03
2022-12-14T23:32:30.083Z,0.06
2022-12-14T23:37:50.472Z,0.04
2022-12-14T23:43:10.868Z,0.01
2022-12-14T23:48:31.219Z,0.06
2022-12-14T23:53:51.552Z,0.09
2022-12-14T23:59:14.203Z,0.03
